createdAt,value
2016-06-17T00:00:05.963Z,15.76
2016-06-17T00:01:05.998Z,15.72
2016-06-17T00:02:05.736Z,15.73
2016-06-17T00:03:06.067Z,15.68
2016-06-17T00:04:05.805Z,15.7
2016-06-17T00:05:06.169Z,15.7
2016-06-17T00:06:06.187Z,15.79
2016-06-17T00:07:06.221Z,15.76
2016-06-17T00:08:06.257Z,15.75
2016-06-17T00:09:06.307Z,15.77
2016-06-17T00:10:06.326Z,15.79
2016-06-17T00:11:06.407Z,15.72
2016-06-17T00:12:06.239Z,15.75
2016-06-17T00:13:06.446Z,15.72
2016-06-17T00:14:06.495Z,15.67
2016-06-17T00:15:06.515Z,15.68
2016-06-17T00:16:06.550Z,15.64
2016-06-17T00:17:06.585Z,15.61
2016-06-17T00:18:06.478Z,15.59
2016-06-17T00:19:06.498Z,15.61
2016-06-17T00:20:06.532Z,15.72
2016-06-17T00:21:06.739Z,15.72
2016-06-17T00:22:06.773Z,15.75
2016-06-17T00:23:06.809Z,15.67
2016-06-17T00:24:06.843Z,15.65
2016-06-17T00:25:06.878Z,15.57
2016-06-17T00:26:06.912Z,15.67
2016-06-17T00:27:06.791Z,15.68
2016-06-17T00:28:06.998Z,15.64
2016-06-17T00:29:07.016Z,15.59
2016-06-17T00:30:06.926Z,15.55
2016-06-17T00:31:06.945Z,15.61
2016-06-17T00:32:07.137Z,15.58
2016-06-17T00:33:07.171Z,15.59
2016-06-17T00:34:07.206Z,15.55
2016-06-17T00:35:07.256Z,15.62
2016-06-17T00:36:07.291Z,15.55
2016-06-17T00:37:07.325Z,15.61
2016-06-17T00:38:07.376Z,15.61
2016-06-17T00:39:07.411Z,15.58
2016-06-17T00:40:07.429Z,15.54
2016-06-17T00:41:07.308Z,15.43
2016-06-17T00:42:07.500Z,15.43
2016-06-17T00:43:07.534Z,15.52
2016-06-17T00:44:07.584Z,15.55
2016-06-17T00:45:07.618Z,15.39
2016-06-17T00:46:07.497Z,15.46
2016-06-17T00:47:07.689Z,15.47
2016-06-17T00:48:07.723Z,15.39
2016-06-17T00:49:07.773Z,15.39
2016-06-17T00:50:07.651Z,15.4
2016-06-17T00:51:07.826Z,15.52
2016-06-17T00:52:07.719Z,15.55
2016-06-17T00:53:07.910Z,15.54
2016-06-17T00:54:07.944Z,15.43
2016-06-17T00:55:07.994Z,15.54
2016-06-17T00:56:07.856Z,15.57
2016-06-17T00:57:08.048Z,15.59
2016-06-17T00:58:08.098Z,15.61
2016-06-17T00:59:08.117Z,15.64
2016-06-17T01:00:07.995Z,15.58
2016-06-17T01:01:08.201Z,15.62
2016-06-17T01:02:08.221Z,15.55
2016-06-17T01:03:08.271Z,15.58
2016-06-17T01:04:08.305Z,15.54
2016-06-17T01:05:08.200Z,15.65
2016-06-17T01:06:08.376Z,15.61
2016-06-17T01:07:08.410Z,15.61
2016-06-17T01:08:08.304Z,15.73
2016-06-17T01:09:08.495Z,15.72
2016-06-17T01:10:08.373Z,15.67
2016-06-17T01:11:08.564Z,15.64
2016-06-17T01:12:08.599Z,15.73
2016-06-17T01:13:08.633Z,15.67
2016-06-17T01:14:08.668Z,15.58
2016-06-17T01:15:08.563Z,15.67
2016-06-17T01:16:08.738Z,15.65
2016-06-17T01:17:08.788Z,15.65
2016-06-17T01:18:08.667Z,15.77
2016-06-17T01:19:08.873Z,15.73
2016-06-17T01:20:08.892Z,15.68
2016-06-17T01:21:08.928Z,15.65
2016-06-17T01:22:08.805Z,15.73
2016-06-17T01:23:08.685Z,15.61
2016-06-17T01:24:09.046Z,15.58
2016-06-17T01:25:09.081Z,15.65
2016-06-17T01:26:08.960Z,15.68
2016-06-17T01:27:08.994Z,15.7
2016-06-17T01:28:09.201Z,15.77
2016-06-17T01:29:09.220Z,15.7
2016-06-17T01:30:09.270Z,15.62
2016-06-17T01:31:09.290Z,15.58
2016-06-17T01:32:09.325Z,15.64
2016-06-17T01:33:09.374Z,15.75
2016-06-17T01:34:09.253Z,15.82
2016-06-17T01:35:09.444Z,15.76
2016-06-17T01:36:09.323Z,15.72
2016-06-17T01:37:09.529Z,15.68
2016-06-17T01:38:09.565Z,15.7
2016-06-17T01:39:09.598Z,15.7
2016-06-17T01:40:09.633Z,15.65
2016-06-17T01:41:09.668Z,15.67
2016-06-17T01:42:09.718Z,15.61
2016-06-17T01:43:09.754Z,15.65
2016-06-17T01:44:09.772Z,15.68
2016-06-17T01:45:09.650Z,15.68
2016-06-17T01:46:09.857Z,15.73
2016-06-17T01:47:09.893Z,15.73
2016-06-17T01:48:09.910Z,15.67
2016-06-17T01:49:09.961Z,15.62
2016-06-17T01:50:09.684Z,15.59
2016-06-17T01:51:10.031Z,15.57
2016-06-17T01:52:10.066Z,15.55
2016-06-17T01:53:10.116Z,15.54
2016-06-17T01:54:10.166Z,15.46
2016-06-17T01:55:10.185Z,15.4
2016-06-17T01:56:10.238Z,15.39
2016-06-17T01:57:10.274Z,15.33
2016-06-17T01:58:10.294Z,15.33
2016-06-17T01:59:10.361Z,15.31
2016-06-17T02:00:10.382Z,15.36
2016-06-17T02:01:10.245Z,15.37
2016-06-17T02:02:10.453Z,15.29
2016-06-17T02:03:10.488Z,15.33
2016-06-17T02:04:10.522Z,15.37
2016-06-17T02:05:10.573Z,15.39
2016-06-17T02:06:10.593Z,15.33
2016-06-17T02:07:10.643Z,15.33
2016-06-17T02:08:10.663Z,15.33
2016-06-17T02:09:10.713Z,15.36
2016-06-17T02:10:10.748Z,15.21
2016-06-17T02:11:10.783Z,15.18
2016-06-17T02:12:10.819Z,15.17
2016-06-17T02:13:10.852Z,15.02
2016-06-17T02:14:10.887Z,14.89
2016-06-17T02:15:10.921Z,14.94
2016-06-17T02:16:10.816Z,15.06
2016-06-17T02:17:10.992Z,15.06
2016-06-17T02:18:11.042Z,15.07
2016-06-17T02:19:10.920Z,15.03
2016-06-17T02:20:11.111Z,15.14
2016-06-17T02:21:10.990Z,15.15
2016-06-17T02:22:11.180Z,15.21
2016-06-17T02:23:11.215Z,15.14
2016-06-17T02:24:11.250Z,15.14
2016-06-17T02:25:11.160Z,15.03
2016-06-17T02:26:11.335Z,15.1
2016-06-17T02:27:11.371Z,15.07
2016-06-17T02:28:11.404Z,15
2016-06-17T02:29:11.439Z,15.06
2016-06-17T02:30:11.474Z,14.96
2016-06-17T02:31:11.524Z,14.85
2016-06-17T02:32:11.560Z,14.85
2016-06-17T02:33:11.577Z,14.78
2016-06-17T02:34:11.472Z,14.86
2016-06-17T02:35:11.648Z,14.88
2016-06-17T02:36:11.699Z,14.92
2016-06-17T02:37:11.576Z,14.96
2016-06-17T02:38:11.767Z,14.96
2016-06-17T02:39:11.802Z,15.02
2016-06-17T02:40:11.680Z,15
2016-06-17T02:41:11.887Z,15.06
2016-06-17T02:42:11.922Z,15.14
2016-06-17T02:43:11.784Z,15.09
2016-06-17T02:44:11.835Z,15.04
2016-06-17T02:45:12.026Z,14.88
2016-06-17T02:46:12.061Z,15.04
2016-06-17T02:47:12.095Z,14.92
2016-06-17T02:48:12.130Z,14.91
2016-06-17T02:49:12.164Z,14.97
2016-06-17T02:50:12.200Z,14.88
2016-06-17T02:51:12.234Z,14.72
2016-06-17T02:52:12.284Z,14.86
2016-06-17T02:53:12.335Z,14.73
2016-06-17T02:54:12.354Z,14.84
2016-06-17T02:55:12.389Z,14.97
2016-06-17T02:56:12.282Z,15.07
2016-06-17T02:57:12.458Z,15
2016-06-17T02:58:12.492Z,14.91
2016-06-17T02:59:12.543Z,14.88
2016-06-17T03:00:12.562Z,14.86
2016-06-17T03:01:12.597Z,14.91
2016-06-17T03:02:12.631Z,14.92
2016-06-17T03:03:12.682Z,15
2016-06-17T03:04:12.716Z,14.84
2016-06-17T03:05:12.767Z,14.88
2016-06-17T03:06:12.802Z,14.88
2016-06-17T03:07:12.836Z,14.91
2016-06-17T03:08:12.871Z,14.92
2016-06-17T03:09:12.765Z,14.96
2016-06-17T03:10:12.941Z,14.92
2016-06-17T03:11:12.975Z,14.92
2016-06-17T03:12:13.010Z,14.92
2016-06-17T03:13:13.060Z,15
2016-06-17T03:14:12.923Z,14.99
2016-06-17T03:15:13.129Z,15.02
2016-06-17T03:16:13.008Z,15.02
2016-06-17T03:17:13.840Z,14.99
2016-06-17T03:18:13.233Z,14.96
2016-06-17T03:19:13.268Z,14.91
2016-06-17T03:20:13.303Z,14.91
2016-06-17T03:21:13.338Z,14.91
2016-06-17T03:22:13.248Z,14.84
2016-06-17T03:23:13.407Z,14.89
2016-06-17T03:24:13.301Z,15
2016-06-17T03:25:13.477Z,14.89
2016-06-17T03:26:13.511Z,14.85
2016-06-17T03:27:13.562Z,14.85
2016-06-17T03:28:13.581Z,14.86
2016-06-17T03:29:13.632Z,14.86
2016-06-17T03:30:13.681Z,14.88
2016-06-17T03:31:13.700Z,14.86
2016-06-17T03:32:13.735Z,14.78
2016-06-17T03:33:13.785Z,14.82
2016-06-17T03:34:13.804Z,14.85
2016-06-17T03:35:13.856Z,14.72
2016-06-17T03:36:13.889Z,14.89
2016-06-17T03:37:13.924Z,14.79
2016-06-17T03:38:13.959Z,14.7
2016-06-17T03:39:13.995Z,14.84
2016-06-17T03:40:14.028Z,14.79
2016-06-17T03:41:13.907Z,14.79
2016-06-17T03:42:14.097Z,14.79
2016-06-17T03:43:14.133Z,14.79
2016-06-17T03:44:14.168Z,14.81
2016-06-17T03:45:14.218Z,14.81
2016-06-17T03:46:14.253Z,14.7
2016-06-17T03:47:14.287Z,14.85
2016-06-17T03:48:14.323Z,14.79
2016-06-17T03:49:14.200Z,14.79
2016-06-17T03:50:14.079Z,14.72
2016-06-17T03:51:14.426Z,14.73
2016-06-17T03:52:14.304Z,14.79
2016-06-17T03:53:14.511Z,14.81
2016-06-17T03:54:14.389Z,14.84
2016-06-17T03:55:14.596Z,14.85
2016-06-17T03:56:14.615Z,14.84
2016-06-17T03:57:14.650Z,14.85
2016-06-17T03:58:14.700Z,14.84
2016-06-17T03:59:14.719Z,14.79
2016-06-17T04:00:14.770Z,14.73
2016-06-17T04:01:14.820Z,14.88
2016-06-17T04:02:14.824Z,14.89
2016-06-17T04:03:14.874Z,14.85
2016-06-17T04:04:14.892Z,14.72
2016-06-17T04:05:14.802Z,14.88
2016-06-17T04:06:14.978Z,14.84
2016-06-17T04:07:15.013Z,14.72
2016-06-17T04:08:15.047Z,14.85
2016-06-17T04:09:14.941Z,14.88
2016-06-17T04:10:14.804Z,14.92
2016-06-17T04:11:15.167Z,14.89
2016-06-17T04:12:15.204Z,15.03
2016-06-17T04:13:15.243Z,15.02
2016-06-17T04:14:15.297Z,15.03
2016-06-17T04:15:15.163Z,15.04
2016-06-17T04:16:15.356Z,15
2016-06-17T04:17:15.394Z,15.02
2016-06-17T04:18:15.429Z,15.14
2016-06-17T04:19:15.465Z,15.19
2016-06-17T04:20:15.360Z,15.25
2016-06-17T04:21:15.552Z,15.19
2016-06-17T04:22:15.432Z,15.24
2016-06-17T04:23:15.623Z,15.14
2016-06-17T04:24:15.658Z,15.27
2016-06-17T04:25:15.693Z,15.21
2016-06-17T04:26:15.728Z,15.43
2016-06-17T04:27:15.622Z,15.35
2016-06-17T04:28:15.642Z,15.44
2016-06-17T04:29:15.833Z,15.59
2016-06-17T04:30:15.712Z,15.7
2016-06-17T04:31:15.903Z,15.68
2016-06-17T04:32:15.955Z,15.83
2016-06-17T04:33:15.988Z,16.01
2016-06-17T04:34:16.023Z,15.97
2016-06-17T04:35:16.058Z,16.15
2016-06-17T04:36:15.937Z,16.49
2016-06-17T04:37:15.986Z,16.72
2016-06-17T04:38:16.022Z,16.79
2016-06-17T04:39:16.212Z,16.61
2016-06-17T04:40:16.247Z,16.56
2016-06-17T04:41:16.283Z,16.42
2016-06-17T04:42:16.316Z,16.28
2016-06-17T04:43:16.351Z,16.1
2016-06-17T04:44:16.385Z,15.95
2016-06-17T04:45:16.437Z,15.88
2016-06-17T04:46:16.315Z,15.79
2016-06-17T04:47:16.350Z,15.7
2016-06-17T04:48:16.227Z,15.72
2016-06-17T04:49:16.575Z,15.73
2016-06-17T04:50:16.609Z,15.7
2016-06-17T04:51:16.660Z,15.79
2016-06-17T04:52:16.696Z,15.75
2016-06-17T04:53:16.574Z,15.83
2016-06-17T04:54:16.780Z,15.9
2016-06-17T04:55:16.799Z,15.84
2016-06-17T04:56:16.835Z,15.84
2016-06-17T04:57:16.869Z,15.8
2016-06-17T04:58:16.920Z,15.82
2016-06-17T04:59:16.953Z,15.95
2016-06-17T05:00:16.988Z,16.01
2016-06-17T05:01:17.023Z,16.02
2016-06-17T05:02:17.073Z,16.05
2016-06-17T05:03:17.093Z,16.1
2016-06-17T05:04:16.987Z,16.17
2016-06-17T05:05:17.021Z,16.23
2016-06-17T05:06:17.212Z,16.24
2016-06-17T05:07:17.248Z,16.38
2016-06-17T05:08:17.282Z,16.65
2016-06-17T05:09:17.333Z,17.2
2016-06-17T05:10:17.366Z,17.56
2016-06-17T05:11:17.245Z,17.9
2016-06-17T05:12:17.436Z,18.43
2016-06-17T05:13:17.471Z,18.25
2016-06-17T05:14:17.506Z,18.18
2016-06-17T05:15:17.556Z,18.04
2016-06-17T05:16:17.590Z,17.86
2016-06-17T05:17:17.625Z,17.64
2016-06-17T05:18:17.519Z,17.39
2016-06-17T05:19:17.695Z,17.15
2016-06-17T05:20:17.746Z,17.06
2016-06-17T05:21:17.779Z,16.99
2016-06-17T05:22:17.674Z,16.93
2016-06-17T05:23:17.848Z,16.74
2016-06-17T05:24:17.743Z,16.68
2016-06-17T05:25:17.810Z,16.66
2016-06-17T05:26:19.188Z,16.74
2016-06-17T05:27:18.020Z,16.75
2016-06-17T05:28:17.913Z,16.72
2016-06-17T05:29:18.089Z,16.72
2016-06-17T05:30:18.139Z,16.6
2016-06-17T05:31:18.018Z,16.57
2016-06-17T05:32:18.209Z,16.81
2016-06-17T05:33:18.258Z,16.97
2016-06-17T05:34:18.278Z,17.15
2016-06-17T05:35:18.312Z,17.14
2016-06-17T05:36:18.363Z,17.3
2016-06-17T05:37:18.241Z,17.12
2016-06-17T05:38:18.433Z,17.15
2016-06-17T05:39:18.467Z,17.23
2016-06-17T05:40:18.517Z,17.33
2016-06-17T05:41:18.552Z,17.33
2016-06-17T05:42:18.586Z,17.16
2016-06-17T05:43:18.481Z,17.24
2016-06-17T05:44:18.359Z,17.27
2016-06-17T05:45:18.550Z,17.3
2016-06-17T05:46:18.741Z,17.34
2016-06-17T05:47:18.792Z,17.29
2016-06-17T05:48:18.810Z,17.27
2016-06-17T05:49:18.846Z,17.19
2016-06-17T05:50:18.896Z,16.96
2016-06-17T05:51:18.789Z,16.91
2016-06-17T05:52:18.981Z,16.83
2016-06-17T05:53:19.015Z,16.83
2016-06-17T05:54:19.050Z,16.93
2016-06-17T05:55:19.100Z,16.74
2016-06-17T05:56:19.120Z,16.6
2016-06-17T05:57:19.013Z,16.53
2016-06-17T05:58:19.204Z,16.54
2016-06-17T05:59:19.240Z,16.49
2016-06-17T06:00:19.273Z,16.35
2016-06-17T06:01:19.324Z,16.23
2016-06-17T06:02:19.203Z,16.24
2016-06-17T06:03:19.409Z,16.26
2016-06-17T06:04:19.428Z,16.21
2016-06-17T06:05:19.478Z,16.35
2016-06-17T06:06:19.513Z,16.36
2016-06-17T06:07:19.392Z,16.38
2016-06-17T06:08:19.584Z,16.43
2016-06-17T06:09:19.461Z,16.41
2016-06-17T06:10:19.496Z,16.47
2016-06-17T06:11:19.546Z,16.42
2016-06-17T06:12:19.722Z,16.33
2016-06-17T06:13:19.788Z,16.53
2016-06-17T06:14:19.807Z,16.57
2016-06-17T06:15:19.857Z,16.56
2016-06-17T06:16:19.876Z,16.58
2016-06-17T06:17:19.926Z,16.57
2016-06-17T06:18:19.805Z,16.6
2016-06-17T06:19:19.997Z,16.6
2016-06-17T06:20:20.030Z,16.58
2016-06-17T06:21:20.066Z,16.57
2016-06-17T06:22:20.115Z,16.68
2016-06-17T06:23:20.166Z,16.64
2016-06-17T06:24:20.201Z,16.74
2016-06-17T06:25:20.220Z,16.84
2016-06-17T06:26:20.099Z,16.94
2016-06-17T06:27:20.305Z,16.89
2016-06-17T06:28:20.184Z,16.78
2016-06-17T06:29:20.379Z,16.75
2016-06-17T06:30:20.420Z,16.68
2016-06-17T06:31:20.459Z,16.71
2016-06-17T06:32:20.515Z,16.64
2016-06-17T06:33:20.570Z,16.76
2016-06-17T06:34:20.590Z,16.94
2016-06-17T06:35:20.470Z,16.96
2016-06-17T06:36:20.506Z,16.94
2016-06-17T06:37:20.714Z,17.04
2016-06-17T06:38:20.766Z,17.11
2016-06-17T06:39:20.786Z,16.79
2016-06-17T06:40:20.822Z,16.83
2016-06-17T06:41:20.872Z,16.93
2016-06-17T06:42:20.752Z,17.05
2016-06-17T06:43:20.944Z,17.15
2016-06-17T06:44:20.978Z,17.11
2016-06-17T06:45:20.888Z,17.12
2016-06-17T06:46:21.063Z,17.2
2016-06-17T06:47:21.098Z,16.93
2016-06-17T06:48:21.148Z,16.93
2016-06-17T06:49:21.182Z,16.9
2016-06-17T06:50:21.218Z,16.9
2016-06-17T06:51:21.252Z,16.96
2016-06-17T06:52:21.287Z,16.78
2016-06-17T06:53:21.338Z,16.83
2016-06-17T06:54:21.216Z,16.9
2016-06-17T06:55:21.392Z,17.01
2016-06-17T06:56:21.441Z,16.93
2016-06-17T06:57:21.476Z,16.93
2016-06-17T06:58:21.511Z,16.99
2016-06-17T06:59:21.421Z,16.99
2016-06-17T07:00:21.596Z,16.94
2016-06-17T07:01:21.631Z,16.97
2016-06-17T07:02:21.681Z,16.9
2016-06-17T07:03:21.559Z,16.83
2016-06-17T07:04:21.578Z,16.69
2016-06-17T07:05:21.785Z,16.71
2016-06-17T07:06:21.821Z,16.69
2016-06-17T07:07:21.854Z,16.66
2016-06-17T07:08:21.733Z,16.61
2016-06-17T07:09:21.939Z,16.61
2016-06-17T07:10:21.818Z,16.41
2016-06-17T07:11:22.009Z,16.58
2016-06-17T07:12:22.044Z,16.54
2016-06-17T07:13:21.938Z,16.51
2016-06-17T07:14:22.113Z,16.54
2016-06-17T07:15:22.163Z,16.57
2016-06-17T07:16:22.198Z,16.56
2016-06-17T07:17:22.234Z,16.5
2016-06-17T07:18:22.282Z,16.57
2016-06-17T07:19:22.162Z,16.66
2016-06-17T07:20:22.352Z,16.78
2016-06-17T07:21:22.387Z,16.86
2016-06-17T07:22:22.422Z,16.76
2016-06-17T07:23:22.473Z,16.74
2016-06-17T07:24:22.492Z,16.69
2016-06-17T07:25:22.542Z,16.6
2016-06-17T07:26:22.420Z,16.64
2016-06-17T07:27:22.611Z,16.66
2016-06-17T07:28:22.662Z,16.58
2016-06-17T07:29:22.570Z,16.53
2016-06-17T07:30:22.747Z,16.61
2016-06-17T07:31:22.765Z,16.66
2016-06-17T07:32:22.660Z,16.79
2016-06-17T07:33:22.835Z,16.9
2016-06-17T07:34:22.871Z,16.96
2016-06-17T07:35:22.921Z,17.15
2016-06-17T07:36:22.814Z,17.33
2016-06-17T07:37:22.989Z,17.39
2016-06-17T07:38:23.024Z,17.51
2016-06-17T07:39:22.918Z,17.63
2016-06-17T07:40:23.109Z,17.7
2016-06-17T07:41:23.145Z,17.71
2016-06-17T07:42:23.178Z,17.98
2016-06-17T07:43:23.229Z,18.1
2016-06-17T07:44:23.264Z,18.11
2016-06-17T07:45:23.314Z,18.19
2016-06-17T07:46:23.334Z,18.18
2016-06-17T07:47:23.383Z,18.11
2016-06-17T07:48:23.106Z,18.11
2016-06-17T07:49:23.453Z,18
2016-06-17T07:50:23.737Z,17.89
2016-06-17T07:51:23.382Z,17.71
2016-06-17T07:52:23.558Z,17.89
2016-06-17T07:53:23.295Z,17.97
2016-06-17T07:54:23.642Z,17.97
2016-06-17T07:55:23.677Z,17.9
2016-06-17T07:56:23.571Z,17.85
2016-06-17T07:57:23.762Z,17.68
2016-06-17T07:58:23.796Z,17.71
2016-06-17T07:59:23.847Z,17.85
2016-06-17T08:04:56.271Z,17.76
2016-06-17T08:05:50.666Z,17.7
2016-06-17T08:06:50.716Z,17.52
2016-06-17T08:07:51.359Z,17.39
2016-06-17T08:08:50.785Z,17.33
2016-06-17T08:09:50.819Z,17.14
2016-06-17T08:10:51.464Z,17.2
2016-06-17T08:11:50.921Z,17.05
2016-06-17T08:12:51.579Z,16.96
2016-06-17T08:13:51.583Z,16.99
2016-06-17T08:14:50.414Z,17.09
2016-06-17T08:15:51.668Z,16.97
2016-06-17T08:16:51.703Z,17.08
2016-06-17T08:17:51.738Z,17.04
2016-06-17T08:18:51.164Z,17.06
2016-06-17T08:19:51.198Z,17.01
2016-06-17T08:20:51.857Z,17.09
2016-06-17T08:21:51.893Z,17.01
2016-06-17T08:22:51.942Z,17.12
2016-06-17T08:23:50.884Z,17.04
2016-06-17T08:24:52.012Z,16.97
2016-06-17T08:25:51.469Z,17.01
2016-06-17T08:26:52.097Z,16.89
2016-06-17T08:27:50.914Z,16.87
2016-06-17T08:28:51.573Z,16.74
2016-06-17T08:29:50.967Z,16.75
2016-06-17T08:30:52.236Z,16.69
2016-06-17T08:31:52.271Z,16.58
2016-06-17T08:32:52.322Z,16.68
2016-06-17T08:33:51.747Z,16.71
2016-06-17T08:34:53.048Z,16.65
2016-06-17T08:35:52.425Z,16.64
2016-06-17T08:36:51.866Z,16.56
2016-06-17T08:37:52.542Z,16.53
2016-06-17T08:38:51.327Z,16.5
2016-06-17T08:39:51.971Z,16.6
2016-06-17T08:40:52.021Z,16.58
2016-06-17T08:41:52.055Z,16.46
2016-06-17T08:42:52.700Z,16.47
2016-06-17T08:43:52.125Z,16.42
2016-06-17T08:44:27.469Z,16.49
2016-06-17T08:45:58.351Z,16.43
2016-06-17T08:46:27.585Z,16.51
2016-06-17T08:47:26.981Z,16.56
2016-06-17T08:48:27.015Z,16.57
2016-06-17T08:49:27.675Z,16.51
2016-06-17T08:50:27.084Z,16.6
2016-06-17T08:51:27.729Z,16.58
2016-06-17T08:52:27.186Z,16.76
2016-06-17T08:53:27.206Z,16.96
2016-06-17T08:54:27.848Z,16.94
2016-06-17T08:55:27.899Z,17.12
2016-06-17T08:56:27.309Z,17.22
2016-06-17T08:57:27.969Z,17.11
2016-06-17T08:58:27.396Z,17.16
2016-06-17T08:59:27.429Z,17.2
2016-06-17T09:00:28.136Z,17.22
2016-06-17T09:01:28.123Z,17.22
2016-06-17T09:02:28.143Z,17.33
2016-06-17T09:03:28.194Z,17.24
2016-06-17T09:04:28.228Z,17.2
2016-06-17T09:05:28.263Z,17.31
2016-06-17T09:06:28.298Z,17.22
2016-06-17T09:07:27.738Z,17.12
2016-06-17T09:08:27.773Z,17.26
2016-06-17T09:16:28.048Z,17.67
2016-06-17T09:17:28.099Z,17.76
2016-06-17T09:24:25.254Z,17.74
2016-06-17T09:25:25.303Z,17.79
2016-06-17T09:26:25.323Z,17.89
2016-06-17T09:27:25.968Z,17.8
2016-06-17T09:28:26.018Z,17.7
2016-06-17T09:29:26.053Z,17.76
2016-06-17T09:30:24.868Z,17.85
2016-06-17T09:31:25.528Z,17.94
2016-06-17T09:32:24.953Z,18.19
2016-06-17T09:33:26.207Z,18.25
2016-06-17T09:34:25.632Z,18.5
2016-06-17T09:35:25.683Z,18.86
2016-06-17T09:36:25.842Z,19.16
2016-06-17T09:37:25.142Z,18.92
2016-06-17T09:38:25.803Z,19.19
2016-06-17T09:39:25.838Z,19.51
2016-06-17T09:40:25.935Z,19.48
2016-06-17T09:41:26.721Z,19.59
2016-06-17T09:42:25.990Z,19.95
2016-06-17T09:43:26.011Z,19.79
2016-06-17T09:44:26.657Z,19.86
2016-06-17T09:45:26.068Z,19.89
2016-06-17T09:46:26.134Z,19.95
2016-06-17T09:47:26.763Z,20.04
2016-06-17T09:48:26.829Z,20.25
2016-06-17T09:49:25.646Z,20.56
2016-06-17T09:50:26.321Z,21.57
2016-06-17T09:51:26.325Z,22.29
2016-06-17T09:52:26.375Z,22.55
2016-06-17T09:53:25.801Z,22.83
2016-06-17T09:54:26.460Z,23.54
2016-06-17T09:55:26.496Z,23.55
2016-06-17T09:56:25.936Z,23.47
2016-06-17T09:57:27.189Z,23.4
2016-06-17T09:58:26.618Z,22.65
2016-06-17T09:59:27.280Z,21.6
2016-06-17T10:00:27.332Z,21.12
2016-06-17T10:01:26.761Z,20.36
2016-06-17T10:02:27.422Z,19.92
2016-06-17T10:03:26.849Z,19.22
2016-06-17T10:04:26.901Z,18.89
2016-06-17T10:05:26.342Z,18.68
2016-06-17T10:06:27.596Z,18.5
2016-06-17T10:07:27.632Z,18.4
2016-06-17T10:08:27.088Z,18.19
2016-06-17T10:09:27.140Z,17.92
2016-06-17T10:10:27.784Z,17.95
2016-06-17T10:11:27.210Z,17.87
2016-06-17T10:12:27.244Z,17.78
2016-06-17T10:13:27.889Z,17.7
2016-06-17T10:14:27.314Z,17.63
2016-06-17T10:15:27.991Z,17.54
2016-06-17T10:16:28.010Z,17.52
2016-06-17T10:17:27.452Z,17.57
2016-06-17T10:18:27.487Z,17.48
2016-06-17T10:19:28.179Z,17.34
2016-06-17T10:20:27.573Z,17.44
2016-06-17T10:21:27.640Z,17.36
2016-06-17T10:22:27.050Z,17.41
2016-06-17T10:23:27.679Z,17.42
2016-06-17T10:24:27.730Z,17.51
2016-06-17T10:25:27.764Z,17.57
2016-06-17T10:26:28.423Z,17.54
2016-06-17T10:27:28.459Z,17.48
2016-06-17T10:28:27.885Z,17.65
2016-06-17T10:29:28.544Z,17.54
2016-06-17T10:30:27.969Z,17.59
2016-06-17T10:31:28.629Z,17.51
2016-06-17T10:32:28.054Z,17.39
2016-06-17T10:33:27.479Z,17.38
2016-06-17T10:34:28.139Z,17.24
2016-06-17T10:35:27.549Z,17.2
2016-06-17T10:36:28.208Z,17.11
2016-06-17T10:37:28.884Z,17.04
2016-06-17T10:38:28.278Z,16.75
2016-06-17T10:39:28.344Z,16.75
2016-06-17T10:40:28.363Z,16.71
2016-06-17T10:41:28.397Z,16.78
2016-06-17T10:42:28.448Z,16.58
2016-06-17T10:43:29.077Z,16.51
2016-06-17T10:44:28.518Z,16.57
2016-06-17T10:45:29.161Z,16.43
2016-06-17T10:46:28.587Z,16.31
2016-06-17T10:47:28.637Z,16.35
2016-06-17T10:48:29.281Z,16.33
2016-06-17T10:49:29.317Z,16.33
2016-06-17T10:50:28.758Z,16.42
2016-06-17T10:51:28.778Z,16.46
2016-06-17T10:52:28.813Z,16.49
2016-06-17T10:53:28.239Z,16.57
2016-06-17T10:54:28.291Z,16.84
2016-06-17T10:55:29.544Z,17.04
2016-06-17T10:56:29.078Z,17.12
2016-06-17T10:57:28.409Z,17.29
2016-06-17T10:58:29.053Z,17.51
2016-06-17T10:59:29.713Z,17.78
2016-06-17T11:00:29.124Z,17.87
2016-06-17T11:01:29.158Z,18.11
2016-06-17T11:02:29.209Z,18.37
2016-06-17T11:03:29.227Z,18.66
2016-06-17T11:04:29.324Z,18.71
2016-06-17T11:05:29.923Z,18.88
2016-06-17T11:06:29.987Z,18.98
2016-06-17T11:07:30.004Z,19.07
2016-06-17T11:08:29.444Z,19.07
2016-06-17T11:09:29.478Z,19
2016-06-17T11:10:28.903Z,18.83
2016-06-17T11:11:30.171Z,19.02
2016-06-17T11:12:30.205Z,19.07
2016-06-17T11:13:29.021Z,19.27
2016-06-17T11:14:30.290Z,19.27
2016-06-17T11:15:29.730Z,19.34
2016-06-17T11:16:29.749Z,19.3
2016-06-17T11:17:30.393Z,19.11
2016-06-17T11:18:30.443Z,19.12
2016-06-17T11:19:30.478Z,19.12
2016-06-17T11:20:29.311Z,19.18
2016-06-17T11:21:29.953Z,19.15
2016-06-17T11:22:30.582Z,19.37
2016-06-17T11:23:30.024Z,19.49
2016-06-17T11:24:30.699Z,19.94
2016-06-17T11:25:30.109Z,20.37
2016-06-17T11:26:30.752Z,20.34
2016-06-17T11:27:30.802Z,20.09
2016-06-17T11:28:30.853Z,19.85
2016-06-17T11:29:30.278Z,19.64
2016-06-17T11:30:30.329Z,19.29
2016-06-17T11:31:31.019Z,19.07
2016-06-17T11:32:29.788Z,18.77
2016-06-17T11:33:30.434Z,18.65
2016-06-17T11:34:30.484Z,18.59
2016-06-17T11:35:29.908Z,18.71
2016-06-17T11:36:30.553Z,18.81
2016-06-17T11:37:30.603Z,19.44
2016-06-17T11:38:30.654Z,19.82
2016-06-17T11:39:31.314Z,20
2016-06-17T11:40:31.363Z,19.86
2016-06-17T11:41:30.773Z,19.4
2016-06-17T11:42:30.197Z,19.21
2016-06-17T11:43:30.841Z,19.31
2016-06-17T11:44:30.267Z,19.02
2016-06-17T11:45:30.957Z,19.04
2016-06-17T11:46:30.960Z,19.14
2016-06-17T11:47:30.400Z,19.19
2016-06-17T11:48:31.060Z,19.29
2016-06-17T11:49:31.094Z,19.4
2016-06-17T11:50:30.550Z,19.27
2016-06-17T11:51:31.179Z,19.31
2016-06-17T11:52:30.604Z,19.49
2016-06-17T11:53:31.263Z,19.63
2016-06-17T11:54:30.689Z,19.92
2016-06-17T11:55:31.334Z,20.24
2016-06-17T11:56:31.384Z,20.58
2016-06-17T11:57:31.419Z,20.93
2016-06-17T11:58:32.063Z,21.21
2016-06-17T11:59:30.909Z,21.09
2016-06-17T12:00:31.554Z,21.21
2016-06-17T12:01:32.198Z,21.36
2016-06-17T12:02:31.030Z,22.22
2016-06-17T12:03:31.065Z,23.08
2016-06-17T12:04:32.334Z,23.23
2016-06-17T12:05:32.368Z,23.23
2016-06-17T12:06:31.809Z,22.63
2016-06-17T12:07:31.875Z,22.68
2016-06-17T12:08:31.894Z,22.02
2016-06-17T12:09:32.554Z,22.28
2016-06-17T12:10:32.573Z,22.76
2016-06-17T12:11:31.420Z,22.53
2016-06-17T12:12:32.673Z,21.58
2016-06-17T12:13:32.708Z,21.52
2016-06-17T12:14:32.150Z,21.29
2016-06-17T12:15:32.797Z,21.12
2016-06-17T12:16:31.647Z,20.95
2016-06-17T12:17:32.309Z,20.63
2016-06-17T12:18:32.348Z,20.7
2016-06-17T12:19:32.383Z,20.7
2016-06-17T12:20:32.436Z,20.63
2016-06-17T12:21:33.143Z,20.6
2016-06-17T12:22:32.523Z,20.48
2016-06-17T12:23:33.168Z,20.37
2016-06-17T12:24:33.234Z,20.59
2016-06-17T12:25:32.051Z,21.51
2016-06-17T12:26:32.711Z,22.38
2016-06-17T12:27:32.746Z,22.32
2016-06-17T12:28:32.797Z,22.44
2016-06-17T12:29:32.848Z,22.39
2016-06-17T12:30:32.882Z,22.75
2016-06-17T12:31:33.527Z,22.93
2016-06-17T12:32:33.576Z,23.56
2016-06-17T12:33:33.626Z,23.59
2016-06-17T12:34:33.677Z,23.5
2016-06-17T12:35:33.712Z,22.94
2016-06-17T12:36:33.762Z,22.38
2016-06-17T12:37:33.844Z,21.77
2016-06-17T12:38:32.628Z,21.43
2016-06-17T12:39:32.679Z,21.18
2016-06-17T12:40:33.339Z,20.93
2016-06-17T12:41:33.983Z,20.7
2016-06-17T12:42:34.032Z,20.74
2016-06-17T12:43:34.068Z,20.55
2016-06-17T12:44:34.102Z,20.37
2016-06-17T12:45:32.965Z,20.32
2016-06-17T12:46:34.203Z,20.37
2016-06-17T12:47:33.643Z,20.36
2016-06-17T12:48:33.678Z,20.13
2016-06-17T12:49:33.729Z,20.14
2016-06-17T12:50:33.764Z,20.03
2016-06-17T12:51:33.814Z,19.85
2016-06-17T12:52:34.474Z,19.86
2016-06-17T12:53:33.900Z,19.92
2016-06-17T12:54:33.934Z,20.1
2016-06-17T12:55:33.374Z,20.14
2016-06-17T12:56:34.019Z,20.09
2016-06-17T12:57:34.663Z,19.95
2016-06-17T12:58:34.104Z,19.94
2016-06-17T12:59:33.545Z,20.03
2016-06-17T13:00:34.204Z,20.11
2016-06-17T13:01:34.864Z,19.96
2016-06-17T13:02:34.915Z,19.81
2016-06-17T13:03:34.934Z,19.73
2016-06-17T13:04:34.969Z,19.81
2016-06-17T13:05:35.003Z,19.88
2016-06-17T13:06:34.444Z,19.77
2016-06-17T13:07:35.118Z,19.86
2016-06-17T13:08:35.169Z,19.85
2016-06-17T13:09:34.580Z,19.76
2016-06-17T13:10:34.004Z,20.07
2016-06-17T13:11:35.258Z,20.41
2016-06-17T13:12:34.699Z,20.81